Accueil
METAR-TAF:

METAR-TAF

Aéroports :

Eastman, Géorgie, États-Unis

latitude: 32-12-59N, longitude: 083-07-43W, altitude: 93 m

Observation

Le bulletin a été fait il y a 21 minutes, à 16:55 UTC
Vent 6 kt de nord-est
Température 7°C
Humidité 66%
Pression 1027 hPa
Visibilité: 16.1 km
Ciel couvert à une hauteur de 1400 ft

METAR: KEZM 141655Z AUTO 05006KT 10SM OVC014 07/01 A3032 RMK AO2 T00720012

Heure: 12:16 (17:16 UTC)


TAF: absent

Observations et prévisions météorologiques de plus de 4000 aéroports (messages METAR et TAF).

Les stations disponibles sont représentées par des disques jaunes et rouges sur la carte.

Passer la souris dessus pour voir le nom de la station.

Cliquer dessus pour voir les observations et prévisions météorologiques.

Pour changer de carte: cliquez sur les boutons verts avec une croix noire pour zoomer, sur le bouton vert avec un tiret pour effectuer un zoom arrière, ou sur les flèches vertes pour les cartes adjacentes.


METAR-TAF: